Time;durP1;ratioP1;P1;durP2;ratioP2;P2;SDS_P1;SDS_P2;PMS_P1;PMS_P2;Temp;Humidity;BMP_temperature;BMP_pressure;BME280_temperature;BME280_humidity;BME280_pressure;Samples;Min_cycle;Max_cycle;Signal;HPM_P1;HPM_P2
2023/11/17 00:00:43;;;;;;;6.90;4.80;;;;;;;4.75;76.97;100469.33;107700;1256;60464;-67
2023/11/17 00:03:11;;;;;;;8.30;5.50;;;;;;;4.74;77.15;100476.94;107872;1256;60217;-67
2023/11/17 00:05:39;;;;;;;8.30;5.50;;;;;;;4.75;77.09;100475.79;92650;1259;20002866;-68
2023/11/17 00:08:07;;;;;;;6.70;4.90;;;;;;;4.77;77.15;100479.17;100066;1256;10002198;-68
2023/11/17 00:10:35;;;;;;;7.20;5.10;;;;;;;4.79;77.15;100476.95;108840;1256;58948;-66
2023/11/17 00:13:02;;;;;;;7.70;4.90;;;;;;;4.81;77.17;100479.54;107847;1256;72667;-65
2023/11/17 00:15:30;;;;;;;5.80;4.60;;;;;;;4.82;77.22;100479.27;107528;1257;60896;-68
2023/11/17 00:17:58;;;;;;;5.80;4.80;;;;;;;4.82;77.19;100479.05;107573;1256;60595;-66
2023/11/17 00:20:26;;;;;;;8.60;4.50;;;;;;;4.80;76.93;100467.55;107771;1257;72634;-66
2023/11/17 00:22:54;;;;;;;7.30;4.80;;;;;;;4.76;76.78;100465.23;107679;1261;71971;-67
2023/11/17 00:25:22;;;;;;;5.90;4.50;;;;;;;4.74;76.72;100471.02;107685;1256;72681;-66
2023/11/17 00:27:49;;;;;;;6.70;4.70;;;;;;;4.76;76.85;100484.54;107543;1259;60872;-66
2023/11/17 00:30:17;;;;;;;6.60;5.10;;;;;;;4.76;76.98;100482.05;107487;1263;60456;-67
2023/11/17 00:35:32;;;;;;;7.00;5.20;;;;;;;4.76;76.97;100483.39;107495;1259;70857;-67
2023/11/17 00:40:30;;;;;;;6.60;4.90;;;;;;;4.74;77.08;100493.06;107589;1259;60409;-67
2023/11/17 00:42:59;;;;;;;8.30;6.10;;;;;;;4.73;77.15;100495.34;107548;1259;60578;-67
2023/11/17 00:45:27;;;;;;;9.20;5.20;;;;;;;4.70;77.32;100497.55;107476;1264;72926;-68
2023/11/17 00:47:55;;;;;;;8.60;5.20;;;;;;;4.26;78.78;100494.20;107476;1259;71464;-68
2023/11/17 00:50:23;;;;;;;8.50;5.80;;;;;;;4.13;80.17;100503.46;107421;1259;72676;-68
2023/11/17 00:52:52;;;;;;;6.60;4.90;;;;;;;4.53;79.98;100508.45;107497;1259;60942;-68
2023/11/17 00:55:21;;;;;;;6.30;4.60;;;;;;;4.64;79.19;100513.33;107561;1259;60444;-68
2023/11/17 00:57:48;;;;;;;6.10;4.40;;;;;;;4.64;78.69;100510.65;107482;1259;72542;-68
2023/11/17 01:00:16;;;;;;;5.90;4.60;;;;;;;4.63;78.64;100507.69;107540;1258;71788;-68
2023/11/17 01:02:44;;;;;;;6.60;4.90;;;;;;;4.64;78.77;100514.20;107573;1259;71142;-67
2023/11/17 01:05:12;;;;;;;7.20;5.10;;;;;;;4.66;78.69;100520.89;107484;1263;61285;-68
2023/11/17 01:07:40;;;;;;;6.80;5.10;;;;;;;4.64;78.49;100517.16;107544;1263;60423;-66
2023/11/17 01:10:08;;;;;;;5.30;4.00;;;;;;;4.60;78.39;100516.02;107575;1259;73846;-66
2023/11/17 01:12:36;;;;;;;6.30;5.50;;;;;;;4.58;78.35;100515.96;108712;1259;71462;-67
2023/11/17 01:15:04;;;;;;;6.50;5.10;;;;;;;4.57;78.53;100515.73;107680;1264;71368;-66
2023/11/17 01:17:32;;;;;;;5.90;4.40;;;;;;;4.57;78.44;100522.55;107584;1259;62267;-66
2023/11/17 01:20:00;;;;;;;7.30;4.50;;;;;;;4.56;78.19;100522.25;107533;1259;60303;-66
2023/11/17 01:22:27;;;;;;;5.00;4.10;;;;;;;4.54;77.92;100518.69;107544;1262;73929;-67
2023/11/17 01:24:55;;;;;;;5.70;4.20;;;;;;;4.54;77.75;100518.17;107557;1259;72078;-67
2023/11/17 01:27:23;;;;;;;6.30;4.30;;;;;;;4.55;77.83;100519.47;107566;1259;71132;-67
2023/11/17 01:29:50;;;;;;;4.70;3.30;;;;;;;4.56;77.50;100522.94;107604;1259;60338;-67
2023/11/17 01:32:18;;;;;;;5.60;3.60;;;;;;;4.55;76.96;100520.10;107594;1260;60306;-67
2023/11/17 01:34:45;;;;;;;6.20;3.90;;;;;;;4.32;76.79;100515.63;107576;1259;72677;-67
2023/11/17 01:37:13;;;;;;;5.30;3.50;;;;;;;3.97;78.17;100516.02;107559;1259;73268;-66
2023/11/17 01:42:44;;;;;;;6.40;4.00;;;;;;;3.89;79.29;100511.44;107514;1258;60411;-66
2023/11/17 01:45:14;;;;;;;5.30;3.90;;;;;;;3.87;79.19;100504.30;107871;1258;253672;-66
2023/11/17 01:47:42;;;;;;;5.90;4.00;;;;;;;3.85;79.20;100501.35;107507;1259;73883;-66
2023/11/17 01:50:14;;;;;;;5.30;3.80;;;;;;;3.84;79.12;100499.77;107545;1259;72302;-67
2023/11/17 01:52:46;;;;;;;5.10;3.80;;;;;;;3.83;79.22;100497.95;107728;1259;72488;-67
2023/11/17 01:55:15;;;;;;;;;;;;;;;3.84;79.19;100494.84;107469;1259;60903;-66
2023/11/17 01:57:43;;;;;;;5.00;3.30;;;;;;;3.84;78.93;100495.58;107580;1259;60341;-66
2023/11/17 02:00:14;;;;;;;4.70;3.10;;;;;;;3.84;78.92;100498.14;107374;1265;72868;-66
2023/11/17 02:02:51;;;;;;;5.10;3.40;;;;;;;3.84;78.93;100498.50;107496;1259;70721;-67
2023/11/17 02:05:24;;;;;;;5.20;3.60;;;;;;;3.84;78.72;100497.85;108749;1259;72222;-67
2023/11/17 02:08:14;;;;;;;5.20;3.60;;;;;;;3.84;78.60;100493.99;108153;1259;59686;-67
2023/11/17 02:10:56;;;;;;;4.50;3.20;;;;;;;3.84;78.55;100488.02;107430;1259;60490;-66
2023/11/17 02:13:26;;;;;;;5.70;3.60;;;;;;;3.82;78.29;100483.28;107425;1264;73869;-67
2023/11/17 02:15:55;;;;;;;4.20;3.00;;;;;;;3.83;78.38;100486.94;107442;1259;72723;-66
2023/11/17 02:18:22;;;;;;;6.80;3.40;;;;;;;3.83;78.31;100483.89;107431;1258;72739;-66
2023/11/17 02:20:52;;;;;;;5.00;3.50;;;;;;;3.84;78.32;100486.69;107419;1259;60326;-68
2023/11/17 02:23:20;;;;;;;5.10;3.80;;;;;;;3.86;78.42;100488.95;107430;1259;59442;-67
2023/11/17 02:26:15;;;;;;;5.20;3.60;;;;;;;3.86;78.33;100491.87;107493;1260;72708;-66
2023/11/17 02:28:50;;;;;;;4.60;3.60;;;;;;;3.87;78.21;100488.73;107508;1259;71116;-66
2023/11/17 02:31:29;;;;;;;5.00;3.40;;;;;;;3.87;78.05;100481.05;107562;1263;72679;-66
2023/11/17 02:33:59;;;;;;;4.40;3.00;;;;;;;3.85;78.01;100479.85;107548;1259;60964;-66
2023/11/17 02:36:27;;;;;;;5.10;3.50;;;;;;;3.86;78.11;100477.01;107409;1259;60301;-66
2023/11/17 02:39:05;;;;;;;7.40;3.90;;;;;;;3.86;78.06;100476.38;107423;1260;73904;-67
2023/11/17 02:41:33;;;;;;;5.20;3.90;;;;;;;3.87;78.19;100477.02;108872;1259;71467;-68
2023/11/17 02:44:11;;;;;;;5.70;4.00;;;;;;;3.85;78.06;100480.22;108833;1259;71424;-68
2023/11/17 02:46:44;;;;;;;5.50;3.80;;;;;;;3.86;78.12;100480.50;107686;1259;60894;-67
2023/11/17 02:49:22;;;;;;;5.40;3.90;;;;;;;3.87;78.12;100479.02;107581;1258;60362;-68
2023/11/17 02:51:51;;;;;;;5.10;3.70;;;;;;;3.93;78.03;100485.08;107436;1259;73981;-67
2023/11/17 02:54:25;;;;;;;5.70;4.00;;;;;;;4.37;76.48;100479.58;107600;1263;72139;-67
2023/11/17 02:56:53;;;;;;;4.70;3.50;;;;;;;4.51;75.42;100477.23;107596;1260;71931;-67
2023/11/17 02:59:20;;;;;;;5.30;3.60;;;;;;;4.55;74.78;100482.60;107494;1259;60368;-67
2023/11/17 03:01:52;;;;;;;5.50;4.00;;;;;;;4.53;74.27;100477.30;107405;1261;60291;-67
2023/11/17 03:04:20;;;;;;;;;;;;;;;4.55;74.09;100477.14;107550;1259;73386;-66
2023/11/17 03:06:49;;;;;;;5.00;3.60;;;;;;;4.55;73.80;100479.95;107523;1258;72742;-66
2023/11/17 03:09:23;;;;;;;5.00;3.50;;;;;;;4.53;73.55;100479.27;107562;1259;71499;-66
2023/11/17 03:11:51;;;;;;;5.20;3.80;;;;;;;4.20;74.21;100480.59;107586;1258;60890;-66
2023/11/17 03:14:19;;;;;;;5.20;3.30;;;;;;;4.42;73.86;100483.23;107636;1259;60651;-66
2023/11/17 03:16:49;;;;;;;5.10;3.80;;;;;;;4.43;73.32;100479.23;107592;1260;72844;-68
2023/11/17 03:19:17;;;;;;;5.70;3.40;;;;;;;4.42;73.18;100482.31;107549;1259;71611;-67
2023/11/17 03:21:45;;;;;;;4.70;3.40;;;;;;;4.41;73.01;100483.49;107560;1259;72694;-67
2023/11/17 03:24:17;;;;;;;4.80;3.30;;;;;;;4.40;73.14;100485.81;107537;1260;61027;-68
2023/11/17 03:26:47;;;;;;;4.40;3.40;;;;;;;4.40;73.10;100489.88;107570;1259;60343;-67
2023/11/17 03:29:15;;;;;;;4.70;3.50;;;;;;;4.39;73.12;100491.44;107556;1259;74014;-68
2023/11/17 03:31:50;;;;;;;5.10;3.90;;;;;;;4.40;73.33;100487.81;107578;1259;72936;-67
2023/11/17 03:34:28;;;;;;;4.90;3.40;;;;;;;4.43;73.39;100493.03;107529;1259;72984;-67
2023/11/17 03:37:13;;;;;;;6.10;3.70;;;;;;;4.44;73.33;100495.17;107886;1259;60413;-66
2023/11/17 03:40:07;;;;;;;4.40;3.30;;;;;;;4.44;73.39;100493.10;107403;1259;60426;-67
2023/11/17 03:42:46;;;;;;;4.80;3.50;;;;;;;4.46;73.39;100496.27;107475;1259;73968;-66
2023/11/17 03:45:15;;;;;;;5.70;3.80;;;;;;;4.16;73.97;100496.39;107400;1259;72748;-67
2023/11/17 03:47:45;;;;;;;5.80;4.00;;;;;;;3.90;75.56;100505.67;107444;1259;72684;-67
2023/11/17 03:50:13;;;;;;;6.30;4.20;;;;;;;3.85;76.20;100505.46;107508;1260;60502;-67
2023/11/17 03:55:25;;;;;;;4.80;3.70;;;;;;;3.84;76.81;100507.16;107805;1259;74460;-67
2023/11/17 03:57:52;;;;;;;5.80;4.30;;;;;;;3.81;76.95;100506.80;107367;1259;72876;-67
2023/11/17 04:00:22;;;;;;;5.50;4.00;;;;;;;3.80;77.18;100506.71;107408;1263;72582;-66
2023/11/17 04:02:53;;;;;;;5.80;3.60;;;;;;;3.80;77.39;100505.04;107586;1259;60538;-66
2023/11/17 04:05:20;;;;;;;5.20;3.80;;;;;;;3.79;77.29;100502.61;107438;1259;60371;-67
2023/11/17 04:07:48;;;;;;;6.20;3.90;;;;;;;3.76;77.47;100501.52;107498;1259;74999;-68
2023/11/17 04:10:18;;;;;;;6.40;4.70;;;;;;;3.76;77.41;100503.20;107702;1263;72725;-68
2023/11/17 04:12:46;;;;;;;6.80;4.70;;;;;;;3.74;77.53;100505.88;107583;1259;71452;-68
2023/11/17 04:15:14;;;;;;;6.20;4.50;;;;;;;3.71;77.43;100506.63;107575;1259;60974;-68
2023/11/17 04:17:42;;;;;;;5.80;4.20;;;;;;;3.71;77.69;100507.16;107605;1259;60391;-70
2023/11/17 04:20:14;;;;;;;6.20;4.40;;;;;;;3.71;77.98;100505.26;107643;1260;74153;-67
2023/11/17 04:22:42;;;;;;;7.20;4.60;;;;;;;3.72;78.27;100505.30;107547;1260;71431;-67
2023/11/17 04:25:10;;;;;;;6.80;4.70;;;;;;;3.74;78.32;100503.82;107503;1260;73181;-67
2023/11/17 04:27:38;;;;;;;6.30;4.70;;;;;;;3.75;78.40;100494.70;107605;1259;60350;-68
2023/11/17 04:30:07;;;;;;;7.20;5.10;;;;;;;3.76;78.50;100492.42;107676;1259;60371;-67
2023/11/17 04:32:37;;;;;;;7.10;4.80;;;;;;;3.76;78.40;100491.16;107749;1259;73870;-68
2023/11/17 04:35:08;;;;;;;6.60;4.80;;;;;;;3.75;78.57;100489.38;107536;1260;72906;-68
2023/11/17 04:37:38;;;;;;;5.90;4.40;;;;;;;3.74;78.59;100493.32;107545;1263;71585;-67
2023/11/17 04:40:10;;;;;;;6.80;5.10;;;;;;;3.72;78.49;100492.77;107489;1259;59684;-67
2023/11/17 04:42:41;;;;;;;7.80;4.80;;;;;;;3.69;78.54;100492.39;107688;1262;60235;-69
2023/11/17 04:45:09;;;;;;;6.80;4.90;;;;;;;3.69;78.76;100494.95;107632;1263;73817;-68
2023/11/17 04:47:37;;;;;;;6.70;4.80;;;;;;;3.70;78.88;100492.34;107566;1261;71330;-69
2023/11/17 04:50:08;;;;;;;6.50;4.60;;;;;;;3.69;79.15;100491.88;107552;1261;72711;-69
2023/11/17 04:52:37;;;;;;;6.50;4.80;;;;;;;3.66;79.13;100497.17;107822;1259;61009;-68
2023/11/17 04:55:05;;;;;;;6.80;4.70;;;;;;;3.63;79.17;100495.06;107535;1264;60404;-67
2023/11/17 04:57:34;;;;;;;6.50;4.50;;;;;;;3.63;79.21;100498.36;107653;1263;72774;-68
2023/11/17 05:00:04;;;;;;;6.90;5.00;;;;;;;3.62;79.50;100499.51;107596;1261;70587;-65
2023/11/17 05:02:33;;;;;;;6.80;4.80;;;;;;;3.61;79.56;100497.02;107510;1262;71398;-69
2023/11/17 05:05:01;;;;;;;8.10;5.50;;;;;;;3.61;79.81;100487.84;107541;1261;60463;-68
2023/11/17 05:07:29;;;;;;;6.70;5.40;;;;;;;3.61;80.01;100491.34;107669;1259;60219;-69
2023/11/17 05:09:56;;;;;;;5.70;4.60;;;;;;;3.63;80.37;100492.18;107590;1259;72383;-67
2023/11/17 05:12:24;;;;;;;7.80;4.70;;;;;;;3.67;80.49;100491.64;107678;1259;71748;-69
2023/11/17 05:14:53;;;;;;;7.00;5.20;;;;;;;3.68;80.56;100494.30;107563;1265;71241;-67
2023/11/17 05:17:22;;;;;;;7.20;5.50;;;;;;;3.68;80.67;100496.54;107673;1263;60306;-68
2023/11/17 05:19:50;;;;;;;9.60;5.30;;;;;;;3.68;80.78;100498.92;107630;1261;60329;-68
2023/11/17 05:22:17;;;;;;;7.40;5.00;;;;;;;3.67;80.62;100505.39;107579;1262;73828;-67
2023/11/17 05:24:48;;;;;;;7.10;5.50;;;;;;;3.69;80.92;100506.77;107753;1263;71415;-67
2023/11/17 05:27:16;;;;;;;6.20;4.20;;;;;;;3.72;81.15;100509.11;107662;1265;72840;-69
2023/11/17 05:29:44;;;;;;;7.30;5.30;;;;;;;3.76;81.27;100516.16;107664;1259;60901;-68
2023/11/17 05:32:11;;;;;;;8.10;5.60;;;;;;;3.78;81.37;100523.83;107636;1260;60339;-67
2023/11/17 05:34:39;;;;;;;6.40;5.00;;;;;;;3.82;81.23;100523.52;107711;1263;72714;-69
2023/11/17 05:37:07;;;;;;;8.60;5.80;;;;;;;3.82;81.30;100524.79;107609;1260;72740;-68
2023/11/17 05:39:35;;;;;;;8.70;5.90;;;;;;;3.82;81.31;100527.94;107551;1264;72410;-68
2023/11/17 05:42:03;;;;;;;8.10;6.00;;;;;;;3.80;81.16;100527.75;107576;1260;60954;-68
2023/11/17 05:44:30;;;;;;;8.00;5.90;;;;;;;3.80;81.15;100532.19;107589;1259;60327;-67
2023/11/17 05:46:59;;;;;;;8.50;6.20;;;;;;;3.79;81.22;100536.59;107561;1259;73922;-67
2023/11/17 05:49:28;;;;;;;8.60;6.90;;;;;;;3.81;81.37;100538.73;107691;1259;72746;-68
2023/11/17 05:51:57;;;;;;;11.90;7.60;;;;;;;3.85;81.45;100539.92;107522;1265;71440;-67
2023/11/17 05:54:24;;;;;;;8.70;6.80;;;;;;;3.90;81.70;100548.79;107743;1265;60511;-68
2023/11/17 05:56:53;;;;;;;8.80;6.30;;;;;;;3.95;81.74;100553.92;107681;1263;60163;-70
2023/11/17 05:59:21;;;;;;;10.60;7.70;;;;;;;3.99;81.71;100560.41;107661;1261;74495;-68
2023/11/17 06:01:49;;;;;;;11.70;7.50;;;;;;;3.99;81.49;100556.99;107619;1260;71736;-66
2023/11/17 06:04:17;;;;;;;11.10;7.60;;;;;;;3.99;81.31;100555.89;107584;1260;71719;-69
2023/11/17 06:06:45;;;;;;;10.10;7.30;;;;;;;3.98;81.16;100560.78;107543;1261;59365;-68
2023/11/17 06:11:46;;;;;;;11.00;7.70;;;;;;;3.99;81.02;100573.49;107712;1260;74291;-69
2023/11/17 06:14:14;;;;;;;8.90;6.10;;;;;;;4.03;81.05;100569.63;107741;1261;72749;-68
2023/11/17 06:16:42;;;;;;;9.30;6.60;;;;;;;4.06;81.16;100571.10;107536;1261;71068;-67
2023/11/17 06:19:12;;;;;;;11.10;6.80;;;;;;;4.08;80.99;100573.31;107657;1260;60307;-67
2023/11/17 06:21:42;;;;;;;;;;;;;;;4.09;80.90;100579.21;107624;1261;60480;-69
2023/11/17 06:24:10;;;;;;;8.70;6.40;;;;;;;4.09;80.64;100578.19;107692;1263;73876;-69
2023/11/17 06:26:37;;;;;;;10.20;7.20;;;;;;;4.09;80.74;100579.86;107731;1260;72755;-69
2023/11/17 06:29:05;;;;;;;9.30;7.30;;;;;;;4.10;80.64;100583.87;107668;1260;70788;-68
2023/11/17 06:31:33;;;;;;;10.30;7.40;;;;;;;4.13;80.56;100583.29;107593;1261;60980;-69
2023/11/17 06:34:01;;;;;;;9.40;6.70;;;;;;;4.16;80.66;100579.37;107595;1260;60405;-68
2023/11/17 06:36:29;;;;;;;9.00;6.50;;;;;;;4.17;80.22;100579.77;107555;1259;73072;-68
2023/11/17 06:38:57;;;;;;;9.90;6.60;;;;;;;4.16;80.12;100584.20;107520;1260;71556;-71
2023/11/17 06:41:28;;;;;;;8.00;6.30;;;;;;;4.15;80.13;100585.96;107623;1260;70295;-68
2023/11/17 06:43:56;;;;;;;10.40;7.20;;;;;;;4.14;80.03;100588.19;107640;1260;60470;-68
2023/11/17 06:46:24;;;;;;;10.70;6.60;;;;;;;4.17;80.11;100590.66;107715;1260;60457;-69
2023/11/17 06:48:52;;;;;;;9.00;6.30;;;;;;;4.21;80.35;100594.02;107661;1259;73976;-68
2023/11/17 06:51:20;;;;;;;9.60;6.60;;;;;;;4.25;80.31;100589.34;107658;1261;71699;-68
2023/11/17 06:53:49;;;;;;;8.20;6.00;;;;;;;4.28;80.14;100589.17;107668;1263;72642;-68
2023/11/17 06:56:17;;;;;;;10.40;7.40;;;;;;;4.30;80.10;100583.68;107640;1264;59918;-69
2023/11/17 06:58:45;;;;;;;10.60;7.20;;;;;;;4.30;79.78;100580.31;107585;1260;60794;-68
2023/11/17 07:01:14;;;;;;;11.90;7.40;;;;;;;4.33;79.76;100582.13;107674;1259;73825;-68
2023/11/17 07:03:42;;;;;;;11.70;7.40;;;;;;;4.36;79.76;100580.27;107555;1260;72751;-68
2023/11/17 07:06:16;;;;;;;10.60;7.40;;;;;;;4.40;79.55;100576.30;107553;1261;71186;-68
2023/11/17 07:08:44;;;;;;;11.70;7.40;;;;;;;4.42;79.32;100577.15;107592;1261;61893;-70
2023/11/17 07:11:15;;;;;;;10.70;7.90;;;;;;;4.41;79.01;100581.95;107708;1260;60344;-68
2023/11/17 07:13:45;;;;;;;11.30;8.20;;;;;;;4.42;78.87;100586.01;107594;1261;73920;-69
2023/11/17 07:16:21;;;;;;;12.50;8.80;;;;;;;4.44;78.64;100590.02;107723;1261;71717;-67
2023/11/17 07:18:54;;;;;;;10.60;8.40;;;;;;;4.46;78.65;100588.70;107752;1263;72808;-69
2023/11/17 07:21:23;;;;;;;14.50;8.30;;;;;;;4.50;78.53;100588.91;107695;1260;60462;-68
2023/11/17 07:23:53;;;;;;;12.50;8.70;;;;;;;4.51;78.27;100586.10;107627;1260;60361;-69
2023/11/17 07:26:22;;;;;;;11.90;8.60;;;;;;;4.54;78.34;100585.27;107707;1260;74290;-68
2023/11/17 07:28:50;;;;;;;12.30;9.10;;;;;;;4.59;78.39;100583.02;107672;1260;72331;-68
2023/11/17 07:31:18;;;;;;;12.40;9.10;;;;;;;4.64;78.46;100586.52;107578;1260;72438;-67
2023/11/17 07:33:47;;;;;;;13.30;9.90;;;;;;;4.68;78.25;100587.91;107697;1263;60078;-70
2023/11/17 07:36:17;;;;;;;14.40;10.10;;;;;;;4.70;78.08;100590.55;107653;1260;60411;-67
2023/11/17 07:38:51;;;;;;;;;;;;;;;4.72;77.75;100595.33;107549;1261;73872;-68
2023/11/17 07:41:19;;;;;;;15.10;9.90;;;;;;;4.72;77.57;100593.70;107674;1260;72941;-67
2023/11/17 07:43:47;;;;;;;11.60;9.20;;;;;;;4.74;77.51;100600.31;107720;1260;72736;-69
2023/11/17 07:46:15;;;;;;;12.80;9.70;;;;;;;4.79;77.66;100604.63;107617;1260;60304;-68
2023/11/17 07:48:43;;;;;;;12.00;9.60;;;;;;;4.84;77.55;100610.82;107518;1261;60480;-68
2023/11/17 07:51:23;;;;;;;14.70;9.60;;;;;;;4.88;77.59;100615.09;107538;1260;73899;-68
2023/11/17 07:53:51;;;;;;;10.60;8.80;;;;;;;4.88;77.29;100615.95;107540;1260;71343;-67
2023/11/17 07:56:19;;;;;;;14.80;9.90;;;;;;;4.91;77.31;100620.75;107616;1260;72682;-68
2023/11/17 07:58:48;;;;;;;14.10;10.50;;;;;;;4.95;77.20;100630.25;107526;1260;61360;-69
2023/11/17 08:01:18;;;;;;;14.50;9.40;;;;;;;5.00;77.07;100636.33;107681;1260;60359;-69
2023/11/17 08:03:45;;;;;;;12.30;8.70;;;;;;;5.04;77.04;100639.62;107600;1260;73881;-68
2023/11/17 08:06:14;;;;;;;13.10;8.90;;;;;;;5.02;76.71;100640.30;107612;1261;71440;-69
2023/11/17 08:08:41;;;;;;;15.40;9.30;;;;;;;4.96;76.55;100642.50;107529;1260;71304;-69
2023/11/17 08:11:09;;;;;;;13.10;9.50;;;;;;;4.96;76.61;100646.93;107581;1264;61839;-68
2023/11/17 08:13:41;;;;;;;15.60;10.50;;;;;;;4.98;76.73;100645.54;107659;1260;60440;-68
2023/11/17 08:16:10;;;;;;;14.20;10.20;;;;;;;4.99;76.59;100643.49;107658;1261;73833;-68
2023/11/17 08:18:38;;;;;;;17.90;11.30;;;;;;;5.01;76.46;100649.23;107642;1260;71599;-68
2023/11/17 08:21:06;;;;;;;16.90;11.40;;;;;;;4.98;76.33;100654.38;107664;1260;72464;-68
2023/11/17 08:23:35;;;;;;;18.20;11.80;;;;;;;4.96;76.32;100654.08;107608;1261;60906;-68
2023/11/17 08:26:04;;;;;;;16.20;12.20;;;;;;;4.97;76.50;100657.27;107608;1260;60432;-68
2023/11/17 08:28:32;;;;;;;15.40;11.20;;;;;;;5.01;76.40;100657.05;107633;1260;73953;-71
2023/11/17 08:31:00;;;;;;;17.60;12.30;;;;;;;5.04;76.31;100659.63;107550;1260;71930;-69
2023/11/17 08:33:29;;;;;;;17.00;12.30;;;;;;;5.04;76.31;100663.13;107595;1261;72723;-68
2023/11/17 08:35:57;;;;;;;17.30;12.40;;;;;;;5.03;76.27;100669.61;107512;1260;60338;-68
2023/11/17 08:38:25;;;;;;;14.70;11.60;;;;;;;5.00;76.30;100668.95;107696;1259;60341;-68
2023/11/17 08:40:55;;;;;;;19.60;13.10;;;;;;;5.00;76.33;100673.59;107688;1260;72578;-67
2023/11/17 08:43:22;;;;;;;18.00;13.30;;;;;;;4.97;76.31;100672.91;107675;1260;72724;-68
2023/11/17 08:45:52;;;;;;;19.80;13.30;;;;;;;4.95;76.32;100673.22;107653;1259;71418;-68
2023/11/17 08:48:20;;;;;;;19.50;12.90;;;;;;;4.96;76.43;100668.32;107651;1260;60958;-68
2023/11/17 08:50:48;;;;;;;18.40;14.00;;;;;;;4.96;76.46;100664.16;107708;1259;60089;-68
2023/11/17 08:53:16;;;;;;;16.60;11.60;;;;;;;4.95;76.63;100662.22;107636;1259;73819;-69
2023/11/17 08:55:44;;;;;;;12.30;9.20;;;;;;;4.98;76.66;100661.46;107507;1260;71433;-68
2023/11/17 08:58:12;;;;;;;16.20;10.20;;;;;;;4.90;75.99;100662.79;107566;1260;71400;-67
2023/11/17 09:00:40;;;;;;;14.60;9.30;;;;;;;4.74;75.79;100662.40;107482;1260;60390;-68
2023/11/17 09:03:09;;;;;;;15.00;9.70;;;;;;;4.62;75.94;100663.91;107692;1259;60371;-68
2023/11/17 09:05:37;;;;;;;12.70;8.90;;;;;;;4.56;76.07;100662.00;107613;1259;72565;-69
2023/11/17 09:08:07;;;;;;;14.60;9.80;;;;;;;4.47;76.01;100661.53;107667;1260;71672;-67
2023/11/17 09:10:35;;;;;;;15.20;10.20;;;;;;;4.41;76.21;100660.14;107608;1261;72674;-68
2023/11/17 09:13:04;;;;;;;12.50;9.60;;;;;;;4.41;76.54;100653.89;107647;1260;60345;-71
2023/11/17 09:15:38;;;;;;;13.20;9.50;;;;;;;4.47;76.91;100656.48;107550;1259;60689;-68
2023/11/17 09:18:07;;;;;;;16.20;9.90;;;;;;;4.56;77.21;100654.35;107578;1265;73842;-68
2023/11/17 09:20:36;;;;;;;16.60;10.30;;;;;;;4.64;77.42;100654.13;107567;1260;71822;-69
2023/11/17 09:23:04;;;;;;;13.40;9.90;;;;;;;4.68;77.26;100649.82;107623;1260;72660;-68
2023/11/17 09:25:31;;;;;;;12.10;9.10;;;;;;;4.68;77.03;100650.11;107626;1260;60465;-66
2023/11/17 09:28:02;;;;;;;14.10;10.30;;;;;;;4.63;76.58;100651.69;107698;1260;60578;-68
2023/11/17 09:30:30;;;;;;;14.40;10.80;;;;;;;4.57;76.63;100648.35;107680;1259;73902;-69
2023/11/17 09:32:59;;;;;;;13.30;10.10;;;;;;;4.57;76.86;100653.85;107587;1259;75151;-68
2023/11/17 09:35:27;;;;;;;10.40;8.00;;;;;;;4.61;77.13;100649.59;107665;1260;71195;-68
2023/11/17 09:37:58;;;;;;;16.30;10.40;;;;;;;4.64;77.00;100649.27;107616;1260;60941;-67
2023/11/17 09:40:36;;;;;;;15.10;11.30;;;;;;;4.68;77.07;100642.37;82789;1259;20001734;-68
2023/11/17 09:43:10;;;;;;;17.10;11.20;;;;;;;4.75;77.03;100643.26;107439;1259;60469;-67
2023/11/17 09:45:39;;;;;;;16.50;11.80;;;;;;;4.78;76.81;100643.32;107451;1261;72538;-67
2023/11/17 09:48:07;;;;;;;14.30;10.10;;;;;;;4.83;76.85;100643.52;107399;1261;70662;-68
2023/11/17 09:50:35;;;;;;;18.90;12.90;;;;;;;4.91;76.95;100644.63;107448;1259;72659;-67
2023/11/17 09:53:02;;;;;;;16.50;11.50;;;;;;;5.01;76.89;100639.52;107351;1261;60415;-68
2023/11/17 09:55:31;;;;;;;15.10;11.70;;;;;;;5.09;76.68;100634.05;107369;1260;60483;-68
2023/11/17 09:58:02;;;;;;;15.50;11.30;;;;;;;5.12;76.19;100631.55;107390;1266;72595;-67
2023/11/17 10:00:31;;;;;;;;;;;;;;;5.16;76.04;100632.79;107500;1260;71642;-67
2023/11/17 10:03:01;;;;;;;17.40;12.20;;;;;;;5.26;76.11;100632.73;107399;1259;71455;-67
2023/11/17 10:05:33;;;;;;;16.90;11.60;;;;;;;5.39;76.17;100631.88;107395;1260;60545;-67
2023/11/17 10:08:12;;;;;;;17.70;13.20;;;;;;;5.50;75.77;100626.30;107734;1260;60447;-67
2023/11/17 10:10:44;;;;;;;18.00;12.60;;;;;;;5.59;75.30;100621.64;107385;1260;75938;-68
2023/11/17 10:13:14;;;;;;;20.00;13.80;;;;;;;5.68;74.93;100622.52;107405;1259;72922;-67
2023/11/17 10:15:47;;;;;;;18.80;13.70;;;;;;;5.77;74.62;100620.64;107438;1259;72448;-68
2023/11/17 10:18:26;;;;;;;18.20;12.50;;;;;;;5.81;74.04;100617.73;107541;1259;60330;-68
2023/11/17 10:20:54;;;;;;;18.00;13.40;;;;;;;5.83;73.58;100620.61;107460;1259;60233;-68
2023/11/17 10:23:22;;;;;;;17.50;13.40;;;;;;;5.87;73.39;100622.46;107407;1260;74283;-67
2023/11/17 10:25:54;;;;;;;20.40;15.10;;;;;;;5.91;73.09;100622.87;107361;1259;71484;-67
2023/11/17 10:28:24;;;;;;;20.50;14.20;;;;;;;5.92;72.70;100628.39;107367;1260;72677;-66
2023/11/17 10:31:00;;;;;;;19.60;14.20;;;;;;;5.92;72.43;100627.79;107461;1260;60995;-67
2023/11/17 10:33:34;;;;;;;19.40;14.20;;;;;;;5.88;72.00;100629.23;107492;1261;60303;-67
2023/11/17 10:36:11;;;;;;;16.20;12.90;;;;;;;5.77;71.61;100631.08;107534;1260;74899;-67
2023/11/17 10:38:45;;;;;;;19.00;13.70;;;;;;;5.58;71.29;100628.02;108457;1259;75049;-69
2023/11/17 10:41:30;;;;;;;24.20;16.10;;;;;;;5.43;71.49;100626.63;107371;1263;72377;-67
2023/11/17 10:44:01;;;;;;;18.20;14.00;;;;;;;5.37;71.91;100626.05;107362;1259;60294;-66
2023/11/17 10:46:40;;;;;;;20.60;14.80;;;;;;;5.38;72.28;100622.64;107621;1259;60420;-66
2023/11/17 10:49:11;;;;;;;23.50;15.10;;;;;;;5.41;72.54;100623.77;107488;1263;72582;-67
2023/11/17 10:51:46;;;;;;;21.50;13.90;;;;;;;5.48;72.70;100623.33;107330;1260;72292;-66
2023/11/17 10:54:16;;;;;;;19.10;13.70;;;;;;;5.54;72.83;100622.51;107607;1259;72709;-67
2023/11/17 10:56:48;;;;;;;21.20;14.40;;;;;;;5.59;72.73;100624.08;107557;1259;60310;-67
2023/11/17 10:59:25;;;;;;;22.50;16.30;;;;;;;5.62;72.66;100624.89;107475;1259;60313;-69
2023/11/17 11:02:31;;;;;;;19.10;14.30;;;;;;;5.61;72.42;100625.56;107298;1260;73963;-66
2023/11/17 11:05:02;;;;;;;26.70;15.10;;;;;;;5.60;72.24;100626.77;107285;1259;72790;-66
2023/11/17 11:07:43;;;;;;;;;;;;;;;5.59;72.19;100628.37;107558;1260;72795;-69
2023/11/17 11:10:15;;;;;;;18.50;13.90;;;;;;;5.56;72.31;100629.49;107472;1259;61147;-68
2023/11/17 11:12:47;;;;;;;24.40;15.20;;;;;;;5.49;72.28;100627.75;107572;1259;60429;-68
2023/11/17 11:15:15;;;;;;;22.60;14.90;;;;;;;5.48;72.52;100624.49;107588;1259;74163;-68
2023/11/17 11:17:55;;;;;;;23.30;15.20;;;;;;;5.49;72.58;100626.00;107707;1259;71781;-69
2023/11/17 11:20:23;;;;;;;21.70;15.40;;;;;;;5.49;72.73;100626.06;107600;1259;71465;-70
2023/11/17 11:22:51;;;;;;;24.50;17.70;;;;;;;5.53;72.81;100630.32;107663;1259;60993;-68
2023/11/17 11:25:21;;;;;;;24.80;17.80;;;;;;;5.55;72.93;100627.71;107642;1259;60331;-68
2023/11/17 11:27:48;;;;;;;26.70;18.60;;;;;;;5.55;72.80;100629.58;107690;1259;72468;-68
2023/11/17 11:30:17;;;;;;;28.60;18.80;;;;;;;5.55;72.77;100628.23;107630;1259;71734;-67
2023/11/17 11:32:44;;;;;;;24.10;18.40;;;;;;;5.53;72.80;100629.08;107566;1259;73917;-69
2023/11/17 11:35:13;;;;;;;27.70;19.30;;;;;;;5.52;72.85;100626.89;107470;1260;60937;-68
2023/11/17 11:37:41;;;;;;;28.80;19.30;;;;;;;5.56;73.10;100627.42;107567;1259;60335;-69
2023/11/17 11:40:12;;;;;;;26.60;19.60;;;;;;;5.58;73.09;100626.49;107601;1259;73971;-67
2023/11/17 11:42:41;;;;;;;33.40;19.50;;;;;;;5.62;73.11;100625.64;107484;1259;71993;-69
2023/11/17 11:45:16;;;;;;;26.60;19.30;;;;;;;5.63;73.05;100626.40;107672;1259;72720;-68
2023/11/17 11:47:49;;;;;;;25.90;18.60;;;;;;;5.61;72.97;100628.63;107430;1259;60209;-68